Time,TemperatureF,DewpointF,PressureIn,WindDirection,WindDirectionDegrees,WindSpeedMPH,WindSpeedGustMPH,Humidity,HourlyPrecipIn,Conditions,Clouds,dailyrainin,SoftwareType,DateUTC
2013-07-18 00:02:00,75.6,75.3,30.13,NNW,344,0.0,0.0,99,0.00,,,0.00,Wunderground v.1.15,2013-07-18 05:02:00,
2013-07-18 00:08:00,75.6,75.3,30.13,NNW,342,0.0,0.0,99,0.00,,,0.00,Wunderground v.1.15,2013-07-18 05:08:00,
2013-07-18 00:13:00,75.5,75.2,30.13,NNW,346,0.0,0.0,99,0.00,,,0.00,Wunderground v.1.15,2013-07-18 05:13:00,
2013-07-18 00:19:00,75.4,75.1,30.13,NNW,346,0.0,0.0,99,0.00,,,0.00,Wunderground v.1.15,2013-07-18 05:19:00,
2013-07-18 00:25:00,75.4,75.1,30.13,North,350,0.0,0.0,99,0.00,,,0.00,Wunderground v.1.15,2013-07-18 05:25:00,
2013-07-18 00:31:00,75.2,74.9,30.12,NNW,345,0.0,0.0,99,0.00,,,0.00,Wunderground v.1.15,2013-07-18 05:31:00,
2013-07-18 00:37:00,75.1,74.8,30.12,NNW,346,0.0,0.0,99,0.00,,,0.00,Wunderground v.1.15,2013-07-18 05:37:00,
2013-07-18 00:43:00,75.0,74.7,30.12,NNW,345,0.0,0.0,99,0.00,,,0.00,Wunderground v.1.15,2013-07-18 05:43:00,
2013-07-18 00:49:00,74.9,74.6,30.12,NNW,346,0.0,0.0,99,0.00,,,0.00,Wunderground v.1.15,2013-07-18 05:49:00,
2013-07-18 00:54:00,74.9,74.6,30.12,NNW,346,0.0,0.0,99,0.00,,,0.00,Wunderground v.1.15,2013-07-18 05:54:00,
2013-07-18 01:00:00,74.9,74.6,30.12,NW,319,0.0,0.0,99,0.00,,,0.00,Wunderground v.1.15,2013-07-18 06:00:00,
2013-07-18 01:06:00,74.8,74.5,30.11,NW,319,0.0,0.0,99,0.00,,,0.00,Wunderground v.1.15,2013-07-18 06:06:00,
2013-07-18 01:11:00,74.8,74.5,30.12,NW,319,0.0,0.0,99,0.00,,,0.00,Wunderground v.1.15,2013-07-18 06:11:00,
2013-07-18 01:17:00,74.8,74.5,30.11,NW,319,0.0,0.0,99,0.00,,,0.00,Wunderground v.1.15,2013-07-18 06:17:00,
2013-07-18 01:23:00,74.8,74.5,30.11,NW,319,0.0,0.0,99,0.00,,,0.00,Wunderground v.1.15,2013-07-18 06:23:00,
2013-07-18 01:29:00,74.7,74.4,30.11,NW,319,0.0,0.0,99,0.00,,,0.00,Wunderground v.1.15,2013-07-18 06:29:00,
2013-07-18 01:35:00,74.6,74.3,30.11,NW,319,0.0,0.0,99,0.00,,,0.00,Wunderground v.1.15,2013-07-18 06:35:00,
2013-07-18 01:41:00,74.6,74.3,30.11,NW,321,0.0,0.0,99,0.00,,,0.00,Wunderground v.1.15,2013-07-18 06:41:00,
2013-07-18 01:46:00,74.6,74.3,30.11,NW,320,0.0,0.0,99,0.00,,,0.00,Wunderground v.1.15,2013-07-18 06:46:00,
2013-07-18 01:52:00,74.6,74.3,30.11,NW,321,0.0,0.0,99,0.00,,,0.00,Wunderground v.1.15,2013-07-18 06:52:00,
2013-07-18 01:58:00,74.5,74.2,30.11,NW,321,0.0,0.0,99,0.00,,,0.00,Wunderground v.1.15,2013-07-18 06:58:00,
2013-07-18 02:03:00,74.4,74.1,30.11,NW,321,0.0,0.0,99,0.00,,,0.00,Wunderground v.1.15,2013-07-18 07:03:00,
2013-07-18 02:08:00,74.4,74.1,30.10,NW,320,0.0,0.0,99,0.00,,,0.00,Wunderground v.1.15,2013-07-18 07:08:00,
2013-07-18 02:13:00,74.4,74.1,30.10,NW,321,0.0,0.0,99,0.00,,,0.00,Wunderground v.1.15,2013-07-18 07:13:00,
2013-07-18 02:18:00,74.4,74.1,30.10,NW,321,0.0,0.0,99,0.00,,,0.00,Wunderground v.1.15,2013-07-18 07:18:00,
2013-07-18 02:23:00,74.4,74.1,30.10,NNW,330,0.0,0.0,99,0.00,,,0.00,Wunderground v.1.15,2013-07-18 07:23:00,
2013-07-18 02:28:00,74.5,74.2,30.09,NW,321,0.0,0.0,99,0.00,,,0.00,Wunderground v.1.15,2013-07-18 07:28:00,
2013-07-18 02:33:00,74.4,74.1,30.09,WNW,302,0.0,0.0,99,0.00,,,0.00,Wunderground v.1.15,2013-07-18 07:33:00,
2013-07-18 02:38:00,74.5,74.2,30.09,NW,305,0.0,0.0,99,0.00,,,0.00,Wunderground v.1.15,2013-07-18 07:38:00,
2013-07-18 02:43:00,74.6,74.3,30.09,NW,309,0.0,0.0,99,0.00,,,0.00,Wunderground v.1.15,2013-07-18 07:43:00,
2013-07-18 02:48:00,74.6,74.3,30.09,NW,317,0.0,0.0,99,0.00,,,0.00,Wunderground v.1.15,2013-07-18 07:48:00,
2013-07-18 02:53:00,74.4,73.8,30.08,NW,322,0.0,0.0,98,0.00,,,0.00,Wunderground v.1.15,2013-07-18 07:53:00,
2013-07-18 02:58:00,74.4,73.8,30.08,NW,324,0.0,0.0,98,0.00,,,0.00,Wunderground v.1.15,2013-07-18 07:58:00,
2013-07-18 03:03:00,74.3,73.7,30.08,NW,324,0.0,0.0,98,0.00,,,0.00,Wunderground v.1.15,2013-07-18 08:03:00,
2013-07-18 03:08:00,74.3,73.7,30.08,NW,324,0.0,0.0,98,0.00,,,0.00,Wunderground v.1.15,2013-07-18 08:08:00,
2013-07-18 03:13:00,74.2,73.9,30.08,NW,324,0.0,0.0,99,0.00,,,0.00,Wunderground v.1.15,2013-07-18 08:13:00,
2013-07-18 03:18:00,74.2,73.6,30.08,NW,320,0.0,0.0,98,0.00,,,0.00,Wunderground v.1.15,2013-07-18 08:18:00,
2013-07-18 03:23:00,74.3,74.0,30.08,NW,320,0.0,0.0,99,0.00,,,0.00,Wunderground v.1.15,2013-07-18 08:23:00,
2013-07-18 03:28:00,74.2,73.9,30.08,NW,323,0.0,0.0,99,0.00,,,0.00,Wunderground v.1.15,2013-07-18 08:28:00,
2013-07-18 03:33:00,74.2,73.9,30.08,NW,323,0.0,0.0,99,0.00,,,0.00,Wunderground v.1.15,2013-07-18 08:33:00,
2013-07-18 03:38:00,74.2,73.9,30.08,NNW,330,0.0,0.0,99,0.00,,,0.00,Wunderground v.1.15,2013-07-18 08:38:00,
2013-07-18 03:43:00,74.1,73.8,30.08,NNW,330,0.0,0.0,99,0.00,,,0.00,Wunderground v.1.15,2013-07-18 08:43:00,
2013-07-18 03:48:00,74.0,73.7,30.08,NNW,330,0.0,0.0,99,0.00,,,0.00,Wunderground v.1.15,2013-07-18 08:48:00,
2013-07-18 03:53:00,74.1,73.8,30.07,NNW,330,0.0,0.0,99,0.00,,,0.00,Wunderground v.1.15,2013-07-18 08:53:00,
2013-07-18 03:58:00,74.1,73.8,30.07,NNW,330,0.0,0.0,99,0.00,,,0.00,Wunderground v.1.15,2013-07-18 08:58:00,
2013-07-18 04:03:00,74.2,73.9,30.07,NNW,328,0.0,0.0,99,0.00,,,0.00,Wunderground v.1.15,2013-07-18 09:03:00,
2013-07-18 04:08:00,74.2,73.6,30.07,NNW,329,0.0,0.0,98,0.00,,,0.00,Wunderground v.1.15,2013-07-18 09:08:00,
2013-07-18 04:13:00,74.2,73.6,30.07,NNW,328,0.0,0.0,98,0.00,,,0.00,Wunderground v.1.15,2013-07-18 09:13:00,
2013-07-18 04:18:00,74.1,73.5,30.07,NNW,328,0.0,0.0,98,0.00,,,0.00,Wunderground v.1.15,2013-07-18 09:18:00,
2013-07-18 04:23:00,74.0,73.4,30.08,NNW,328,0.0,0.0,98,0.00,,,0.00,Wunderground v.1.15,2013-07-18 09:23:00,
2013-07-18 04:28:00,74.0,73.4,30.08,NNW,328,0.0,0.0,98,0.00,,,0.00,Wunderground v.1.15,2013-07-18 09:28:00,
2013-07-18 04:33:00,74.0,73.4,30.08,North,352,0.0,0.0,98,0.00,,,0.00,Wunderground v.1.15,2013-07-18 09:33:00,
2013-07-18 04:38:00,74.0,73.4,30.08,NNW,334,0.0,0.0,98,0.00,,,0.00,Wunderground v.1.15,2013-07-18 09:38:00,
2013-07-18 04:43:00,73.9,73.3,30.08,NNW,334,0.0,0.0,98,0.00,,,0.00,Wunderground v.1.15,2013-07-18 09:43:00,
2013-07-18 04:48:00,73.9,73.3,30.08,NNW,335,0.0,0.0,98,0.00,,,0.00,Wunderground v.1.15,2013-07-18 09:48:00,
2013-07-18 04:53:00,73.9,73.3,30.08,NNW,334,0.0,0.0,98,0.00,,,0.00,Wunderground v.1.15,2013-07-18 09:53:00,
2013-07-18 04:58:00,73.9,73.3,30.08,NNW,335,0.0,0.0,98,0.00,,,0.00,Wunderground v.1.15,2013-07-18 09:58:00,
2013-07-18 05:03:00,73.9,73.3,30.08,NNW,335,0.0,0.0,98,0.00,,,0.00,Wunderground v.1.15,2013-07-18 10:03:00,
2013-07-18 05:08:00,73.9,73.0,30.08,NNW,333,0.0,0.0,97,0.00,,,0.00,Wunderground v.1.15,2013-07-18 10:08:00,
2013-07-18 05:13:00,73.8,72.9,30.08,NNW,333,0.0,0.0,97,0.00,,,0.00,Wunderground v.1.15,2013-07-18 10:13:00,
2013-07-18 05:18:00,73.7,72.8,30.07,NNW,333,0.0,0.0,97,0.00,,,0.00,Wunderground v.1.15,2013-07-18 10:18:00,
2013-07-18 05:23:00,73.6,72.7,30.07,NNW,333,0.0,0.0,97,0.00,,,0.00,Wunderground v.1.15,2013-07-18 10:23:00,
2013-07-18 05:28:00,73.5,72.6,30.07,NNW,333,0.0,0.0,97,0.00,,,0.00,Wunderground v.1.15,2013-07-18 10:28:00,
2013-07-18 05:33:00,73.4,72.5,30.08,NNW,333,0.0,0.0,97,0.00,,,0.00,Wunderground v.1.15,2013-07-18 10:33:00,
2013-07-18 05:38:00,73.4,72.5,30.08,NNW,333,0.0,0.0,97,0.00,,,0.00,Wunderground v.1.15,2013-07-18 10:38:00,
2013-07-18 05:43:00,73.3,72.4,30.08,NNW,327,0.0,0.0,97,0.00,,,0.00,Wunderground v.1.15,2013-07-18 10:43:00,
2013-07-18 05:48:00,73.3,72.4,30.08,NNW,328,0.0,0.0,97,0.00,,,0.00,Wunderground v.1.15,2013-07-18 10:48:00,
2013-07-18 05:53:00,73.3,72.1,30.08,NNW,328,0.0,0.0,96,0.00,,,0.00,Wunderground v.1.15,2013-07-18 10:53:00,
2013-07-18 05:58:00,73.3,72.1,30.08,NNW,338,0.0,0.0,96,0.00,,,0.00,Wunderground v.1.15,2013-07-18 10:58:00,
2013-07-18 06:03:00,73.3,72.1,30.07,NW,325,0.0,0.0,96,0.00,,,0.00,Wunderground v.1.15,2013-07-18 11:03:00,
2013-07-18 06:08:00,73.6,72.1,30.08,NW,320,0.0,0.0,95,0.00,,,0.00,Wunderground v.1.15,2013-07-18 11:08:00,
2013-07-18 06:13:00,73.7,72.2,30.07,NNW,333,2.0,2.0,95,0.00,,,0.00,Wunderground v.1.15,2013-07-18 11:13:00,
2013-07-18 06:18:00,73.8,72.0,30.07,NW,324,0.0,3.0,94,0.00,,,0.00,Wunderground v.1.15,2013-07-18 11:18:00,
2013-07-18 06:23:00,73.7,71.9,30.07,NW,325,1.0,1.0,94,0.00,,,0.00,Wunderground v.1.15,2013-07-18 11:23:00,
2013-07-18 06:28:00,73.7,71.9,30.07,NW,324,1.0,2.0,94,0.00,,,0.00,Wunderground v.1.15,2013-07-18 11:28:00,
2013-07-18 06:33:00,73.7,71.9,30.07,NNW,328,1.0,1.0,94,0.00,,,0.00,Wunderground v.1.15,2013-07-18 11:33:00,
2013-07-18 06:38:00,74.0,71.8,30.08,NNW,340,2.0,2.0,93,0.00,,,0.00,Wunderground v.1.15,2013-07-18 11:38:00,
2013-07-18 06:43:00,74.4,72.2,30.08,NNW,330,2.0,3.0,93,0.00,,,0.00,Wunderground v.1.15,2013-07-18 11:43:00,
2013-07-18 06:48:00,74.7,72.2,30.08,NNW,330,1.0,3.0,92,0.00,,,0.00,Wunderground v.1.15,2013-07-18 11:48:00,
2013-07-18 06:53:00,74.9,72.4,30.08,NNW,328,1.0,3.0,92,0.00,,,0.00,Wunderground v.1.15,2013-07-18 11:53:00,
2013-07-18 06:58:00,75.0,72.5,30.07,NW,316,2.0,3.0,92,0.00,,,0.00,Wunderground v.1.15,2013-07-18 11:58:00,
2013-07-18 07:03:00,75.1,72.6,30.07,NW,321,3.0,4.0,92,0.00,,,0.00,Wunderground v.1.15,2013-07-18 12:03:00,
2013-07-18 07:08:00,75.4,72.6,30.07,NNW,335,3.0,4.0,91,0.00,,,0.00,Wunderground v.1.15,2013-07-18 12:08:00,
2013-07-18 07:13:00,75.7,73.2,30.07,NW,319,3.0,4.0,92,0.00,,,0.00,Wunderground v.1.15,2013-07-18 12:13:00,
2013-07-18 07:18:00,75.9,73.4,30.07,NNW,327,2.0,4.0,92,0.00,,,0.00,Wunderground v.1.15,2013-07-18 12:18:00,
2013-07-18 07:23:00,76.0,73.2,30.07,NNW,340,3.0,5.0,91,0.00,,,0.00,Wunderground v.1.15,2013-07-18 12:23:00,
2013-07-18 07:28:00,76.2,73.4,30.08,NW,317,4.0,5.0,91,0.00,,,0.00,Wunderground v.1.15,2013-07-18 12:28:00,
2013-07-18 07:33:00,76.4,73.6,30.08,NNW,332,3.0,5.0,91,0.00,,,0.00,Wunderground v.1.15,2013-07-18 12:33:00,
2013-07-18 07:38:00,76.8,74.0,30.08,North,354,2.0,5.0,91,0.00,,,0.00,Wunderground v.1.15,2013-07-18 12:38:00,
2013-07-18 07:43:00,77.0,74.2,30.08,NNW,336,2.0,6.0,91,0.00,,,0.00,Wunderground v.1.15,2013-07-18 12:43:00,
2013-07-18 07:48:00,77.4,74.6,30.09,NNE,15,5.0,7.0,91,0.00,,,0.00,Wunderground v.1.15,2013-07-18 12:48:00,
2013-07-18 07:53:00,77.7,74.5,30.09,NW,325,3.0,8.0,90,0.00,,,0.00,Wunderground v.1.15,2013-07-18 12:53:00,
2013-07-18 07:58:00,77.8,74.6,30.09,North,11,3.0,8.0,90,0.00,,,0.00,Wunderground v.1.15,2013-07-18 12:58:00,
2013-07-18 08:03:00,78.1,74.9,30.09,NNW,344,1.0,5.0,90,0.00,,,0.00,Wunderground v.1.15,2013-07-18 13:03:00,
2013-07-18 08:08:00,78.3,75.1,30.09,NE,36,4.0,6.0,90,0.00,,,0.00,Wunderground v.1.15,2013-07-18 13:08:00,
2013-07-18 08:13:00,78.5,75.0,30.10,NNW,329,2.0,8.0,89,0.00,,,0.00,Wunderground v.1.15,2013-07-18 13:13:00,
2013-07-18 08:18:00,78.6,75.4,30.10,NE,49,2.0,11.0,90,0.00,,,0.00,Wunderground v.1.15,2013-07-18 13:18:00,
2013-07-18 08:23:00,79.0,75.5,30.10,NE,44,4.0,6.0,89,0.00,,,0.00,Wunderground v.1.15,2013-07-18 13:23:00,
2013-07-18 08:28:00,79.2,75.7,30.10,NE,51,5.0,7.0,89,0.00,,,0.00,Wunderground v.1.15,2013-07-18 13:28:00,
2013-07-18 08:33:00,79.5,76.0,30.10,North,354,3.0,5.0,89,0.00,,,0.00,Wunderground v.1.15,2013-07-18 13:33:00,
2013-07-18 08:38:00,79.7,76.2,30.11,NNE,25,2.0,5.0,89,0.00,,,0.00,Wunderground v.1.15,2013-07-18 13:38:00,
2013-07-18 08:43:00,79.9,76.0,30.10,NNW,345,2.0,9.0,88,0.00,,,0.00,Wunderground v.1.15,2013-07-18 13:43:00,
2013-07-18 08:48:00,80.4,76.5,30.10,NNE,15,2.0,9.0,88,0.00,,,0.00,Wunderground v.1.15,2013-07-18 13:48:00,
2013-07-18 08:53:00,80.8,76.2,30.10,North,8,6.0,7.0,86,0.00,,,0.00,Wunderground v.1.15,2013-07-18 13:53:00,
2013-07-18 08:58:00,81.2,76.6,30.11,NNE,25,7.0,7.0,86,0.00,,,0.00,Wunderground v.1.15,2013-07-18 13:58:00,
2013-07-18 09:03:00,81.5,76.6,30.10,NNW,342,3.0,9.0,85,0.00,,,0.00,Wunderground v.1.15,2013-07-18 14:03:00,
2013-07-18 09:08:00,82.0,76.7,30.10,East,79,2.0,9.0,84,0.00,,,0.00,Wunderground v.1.15,2013-07-18 14:08:00,
2013-07-18 09:13:00,82.6,77.3,30.11,NNE,26,2.0,4.0,84,0.00,,,0.00,Wunderground v.1.15,2013-07-18 14:13:00,
2013-07-18 09:18:00,83.0,76.9,30.11,ENE,74,2.0,6.0,82,0.00,,,0.00,Wunderground v.1.15,2013-07-18 14:18:00,
2013-07-18 09:23:00,83.4,77.7,30.11,ENE,77,4.0,7.0,83,0.00,,,0.00,Wunderground v.1.15,2013-07-18 14:23:00,
2013-07-18 09:28:00,83.6,77.1,30.11,ENE,58,3.0,8.0,81,0.00,,,0.00,Wunderground v.1.15,2013-07-18 14:28:00,
2013-07-18 09:34:00,84.0,77.5,30.11,North,355,1.0,5.0,81,0.00,,,0.00,Wunderground v.1.15,2013-07-18 14:34:00,
2013-07-18 09:39:00,84.1,77.3,30.11,ENE,78,2.0,9.0,80,0.00,,,0.00,Wunderground v.1.15,2013-07-18 14:39:00,
2013-07-18 09:44:00,83.7,76.9,30.11,NW,326,2.0,8.0,80,0.00,,,0.00,Wunderground v.1.15,2013-07-18 14:44:00,
2013-07-18 09:49:00,82.9,76.8,30.12,NNE,16,10.0,11.0,82,0.00,,,0.00,Wunderground v.1.15,2013-07-18 14:49:00,
2013-07-18 09:54:00,81.6,75.6,30.12,NNE,13,6.0,14.0,82,0.00,,,0.00,Wunderground v.1.15,2013-07-18 14:54:00,
2013-07-18 09:58:00,80.5,75.6,30.12,NW,314,6.0,14.0,85,0.00,,,0.00,Wunderground v.1.15,2013-07-18 14:58:00,
2013-07-18 10:03:00,79.5,74.9,30.12,NNE,15,10.0,12.0,86,0.00,,,0.00,Wunderground v.1.15,2013-07-18 15:03:00,
2013-07-18 10:08:00,78.8,73.9,30.12,NNE,15,10.0,14.0,85,0.00,,,0.00,Wunderground v.1.15,2013-07-18 15:08:00,
2013-07-18 10:13:00,78.4,73.9,30.13,North,354,2.0,10.0,86,0.00,,,0.00,Wunderground v.1.15,2013-07-18 15:13:00,
2013-07-18 10:18:00,78.0,73.5,30.13,ENE,67,4.0,11.0,86,0.00,,,0.01,Wunderground v.1.15,2013-07-18 15:18:00,
2013-07-18 10:23:00,77.1,73.3,30.13,NNE,15,7.0,14.0,88,0.72,,,0.07,Wunderground v.1.15,2013-07-18 15:23:00,
2013-07-18 10:28:00,76.2,73.1,30.13,NNW,340,4.0,14.0,90,0.55,,,0.14,Wunderground v.1.15,2013-07-18 15:28:00,
2013-07-18 10:33:00,75.5,72.7,30.13,NNE,25,6.0,10.0,91,0.20,,,0.16,Wunderground v.1.15,2013-07-18 15:33:00,
2013-07-18 10:38:00,75.2,72.7,30.13,NNW,330,7.0,13.0,92,0.10,,,0.16,Wunderground v.1.15,2013-07-18 15:38:00,
2013-07-18 10:43:00,75.2,72.7,30.13,NNE,20,3.0,7.0,92,0.05,,,0.16,Wunderground v.1.15,2013-07-18 15:43:00,
2013-07-18 10:48:00,75.3,72.8,30.13,NNE,15,2.0,9.0,92,0.04,,,0.16,Wunderground v.1.15,2013-07-18 15:48:00,
2013-07-18 10:53:00,75.6,73.1,30.12,NW,321,3.0,7.0,92,0.00,,,0.16,Wunderground v.1.15,2013-07-18 15:53:00,
2013-07-18 10:58:00,76.0,73.5,30.11,North,353,3.0,9.0,92,0.00,,,0.16,Wunderground v.1.15,2013-07-18 15:58:00,
2013-07-18 11:03:00,77.2,74.7,30.11,ENE,77,2.0,7.0,92,0.00,,,0.16,Wunderground v.1.15,2013-07-18 16:03:00,
2013-07-18 11:08:00,78.5,74.6,30.11,NNW,336,3.0,10.0,88,0.00,,,0.16,Wunderground v.1.15,2013-07-18 16:08:00,
2013-07-18 11:14:00,79.7,75.8,30.11,ENE,63,1.0,8.0,88,0.00,,,0.16,Wunderground v.1.15,2013-07-18 16:14:00,
2013-07-18 11:19:00,80.7,74.0,30.11,ENE,69,6.0,8.0,80,0.00,,,0.16,Wunderground v.1.15,2013-07-18 16:19:00,
2013-07-18 11:24:00,81.1,74.3,30.11,NE,51,2.0,7.0,80,0.00,,,0.16,Wunderground v.1.15,2013-07-18 16:24:00,
2013-07-18 11:29:00,81.6,75.2,30.11,NNW,336,3.0,8.0,81,0.00,,,0.16,Wunderground v.1.15,2013-07-18 16:29:00,
2013-07-18 11:34:00,82.1,73.8,30.11,East,83,10.0,11.0,76,0.00,,,0.16,Wunderground v.1.15,2013-07-18 16:34:00,
2013-07-18 11:39:00,82.2,73.5,30.11,ENE,73,8.0,12.0,75,0.00,,,0.16,Wunderground v.1.15,2013-07-18 16:39:00,
2013-07-18 11:44:00,82.4,72.5,30.10,ENE,68,3.0,14.0,72,0.00,,,0.16,Wunderground v.1.15,2013-07-18 16:44:00,
2013-07-18 11:49:00,82.7,72.7,30.10,NE,47,3.0,14.0,72,0.00,,,0.16,Wunderground v.1.15,2013-07-18 16:49:00,
2013-07-18 11:54:00,82.9,72.5,30.10,ENE,63,3.0,11.0,71,0.00,,,0.16,Wunderground v.1.15,2013-07-18 16:54:00,
2013-07-18 11:59:00,83.2,72.8,30.10,North,6,4.0,11.0,71,0.00,,,0.16,Wunderground v.1.15,2013-07-18 16:59:00,
2013-07-18 12:04:00,83.7,73.7,30.09,NE,37,8.0,16.0,72,0.00,,,0.16,Wunderground v.1.15,2013-07-18 17:04:00,
2013-07-18 12:09:00,83.6,73.2,30.09,West,269,1.0,16.0,71,0.00,,,0.16,Wunderground v.1.15,2013-07-18 17:09:00,
2013-07-18 12:14:00,83.8,73.8,30.10,ENE,78,1.0,5.0,72,0.00,,,0.16,Wunderground v.1.15,2013-07-18 17:14:00,
2013-07-18 12:19:00,84.3,73.9,30.09,NE,55,5.0,11.0,71,0.00,,,0.16,Wunderground v.1.15,2013-07-18 17:19:00,
2013-07-18 12:24:00,84.3,74.3,30.09,NE,47,3.0,9.0,72,0.00,,,0.16,Wunderground v.1.15,2013-07-18 17:24:00,
2013-07-18 12:29:00,84.8,74.3,30.09,East,97,5.0,9.0,71,0.00,,,0.16,Wunderground v.1.15,2013-07-18 17:29:00,
2013-07-18 12:34:00,84.5,74.5,30.09,SE,125,6.0,9.0,72,0.00,,,0.16,Wunderground v.1.15,2013-07-18 17:34:00,
2013-07-18 12:39:00,84.0,74.0,30.09,ESE,105,4.0,11.0,72,0.00,,,0.16,Wunderground v.1.15,2013-07-18 17:39:00,
2013-07-18 12:44:00,84.3,75.1,30.08,SE,127,3.0,8.0,74,0.00,,,0.16,Wunderground v.1.15,2013-07-18 17:44:00,
2013-07-18 12:49:00,84.1,75.3,30.08,ENE,72,4.0,10.0,75,0.00,,,0.16,Wunderground v.1.15,2013-07-18 17:49:00,
2013-07-18 12:54:00,83.8,76.2,30.08,ESE,108,6.0,10.0,78,0.00,,,0.16,Wunderground v.1.15,2013-07-18 17:54:00,
2013-07-18 12:59:00,83.9,75.1,30.08,ESE,103,7.0,10.0,75,0.00,,,0.16,Wunderground v.1.15,2013-07-18 17:59:00,
2013-07-18 13:04:00,84.0,75.6,30.08,East,86,6.0,8.0,76,0.00,,,0.16,Wunderground v.1.15,2013-07-18 18:04:00,
2013-07-18 13:09:00,83.9,75.5,30.08,East,81,4.0,11.0,76,0.00,,,0.16,Wunderground v.1.15,2013-07-18 18:09:00,
2013-07-18 13:14:00,83.9,76.3,30.08,ESE,105,6.0,12.0,78,0.00,,,0.16,Wunderground v.1.15,2013-07-18 18:14:00,
2013-07-18 13:19:00,83.9,75.9,30.07,ESE,117,5.0,12.0,77,0.00,,,0.16,Wunderground v.1.15,2013-07-18 18:19:00,
2013-07-18 13:24:00,84.0,76.4,30.07,ESE,120,6.0,11.0,78,0.00,,,0.16,Wunderground v.1.15,2013-07-18 18:24:00,
2013-07-18 13:29:00,84.1,76.5,30.07,ESE,107,5.0,11.0,78,0.00,,,0.16,Wunderground v.1.15,2013-07-18 18:29:00,
2013-07-18 13:34:00,83.9,76.3,30.07,ESE,114,7.0,10.0,78,0.00,,,0.16,Wunderground v.1.15,2013-07-18 18:34:00,
2013-07-18 13:39:00,83.7,76.1,30.07,SE,142,5.0,10.0,78,0.00,,,0.16,Wunderground v.1.15,2013-07-18 18:39:00,
2013-07-18 13:44:00,83.7,76.5,30.07,ESE,106,9.0,9.0,79,0.00,,,0.16,Wunderground v.1.15,2013-07-18 18:44:00,
2013-07-18 13:49:00,83.7,76.5,30.06,SE,134,5.0,9.0,79,0.00,,,0.16,Wunderground v.1.15,2013-07-18 18:49:00,
2013-07-18 13:54:00,83.9,76.3,30.06,ESE,117,5.0,8.0,78,0.00,,,0.16,Wunderground v.1.15,2013-07-18 18:54:00,
2013-07-18 13:59:00,83.9,76.7,30.06,East,94,6.0,11.0,79,0.00,,,0.16,Wunderground v.1.15,2013-07-18 18:59:00,
2013-07-18 14:04:00,84.1,77.3,30.06,ESE,121,4.0,8.0,80,0.00,,,0.16,Wunderground v.1.15,2013-07-18 19:04:00,
2013-07-18 14:09:00,84.8,78.3,30.06,SE,138,2.0,8.0,81,0.00,,,0.16,Wunderground v.1.15,2013-07-18 19:09:00,
2013-07-18 14:15:00,84.5,78.0,30.05,SE,128,6.0,10.0,81,0.00,,,0.16,Wunderground v.1.15,2013-07-18 19:15:00,
2013-07-18 14:20:00,84.5,77.6,30.05,SE,132,5.0,6.0,80,0.00,,,0.16,Wunderground v.1.15,2013-07-18 19:20:00,
2013-07-18 14:25:00,84.8,78.7,30.05,SE,136,4.0,8.0,82,0.00,,,0.16,Wunderground v.1.15,2013-07-18 19:25:00,
2013-07-18 14:29:00,85.1,78.2,30.04,SE,126,8.0,8.0,80,0.00,,,0.16,Wunderground v.1.15,2013-07-18 19:29:00,
2013-07-18 14:35:00,85.6,78.7,30.04,SE,132,5.0,9.0,80,0.00,,,0.16,Wunderground v.1.15,2013-07-18 19:35:00,
2013-07-18 14:40:00,85.6,78.3,30.04,SSE,148,6.0,6.0,79,0.00,,,0.16,Wunderground v.1.15,2013-07-18 19:40:00,
2013-07-18 14:44:00,85.7,78.4,30.04,SE,141,3.0,6.0,79,0.00,,,0.16,Wunderground v.1.15,2013-07-18 19:44:00,
2013-07-18 14:50:00,85.7,78.4,30.04,SSE,160,6.0,6.0,79,0.00,,,0.16,Wunderground v.1.15,2013-07-18 19:50:00,
2013-07-18 14:55:00,85.4,78.1,30.03,SSE,163,5.0,8.0,79,0.00,,,0.16,Wunderground v.1.15,2013-07-18 19:55:00,
2013-07-18 15:00:00,85.5,78.6,30.03,SE,125,3.0,4.0,80,0.00,,,0.16,Wunderground v.1.15,2013-07-18 20:00:00,
2013-07-18 15:05:00,85.7,78.8,30.03,SE,146,3.0,7.0,80,0.00,,,0.16,Wunderground v.1.15,2013-07-18 20:05:00,
2013-07-18 15:10:00,86.0,78.7,30.03,SE,142,3.0,4.0,79,0.00,,,0.16,Wunderground v.1.15,2013-07-18 20:10:00,
2013-07-18 15:15:00,86.3,79.0,30.02,SSE,148,4.0,7.0,79,0.00,,,0.16,Wunderground v.1.15,2013-07-18 20:15:00,
2013-07-18 15:20:00,85.9,78.2,30.02,South,177,3.0,5.0,78,0.00,,,0.16,Wunderground v.1.15,2013-07-18 20:20:00,
2013-07-18 15:25:00,86.0,79.1,30.01,SSE,148,3.0,7.0,80,0.00,,,0.16,Wunderground v.1.15,2013-07-18 20:25:00,
2013-07-18 15:30:00,86.1,79.2,30.01,ESE,107,4.0,5.0,80,0.00,,,0.16,Wunderground v.1.15,2013-07-18 20:30:00,
2013-07-18 15:35:00,85.6,78.7,30.01,ESE,116,8.0,11.0,80,0.00,,,0.16,Wunderground v.1.15,2013-07-18 20:35:00,
2013-07-18 15:40:00,85.8,78.5,30.01,SE,127,3.0,5.0,79,0.00,,,0.16,Wunderground v.1.15,2013-07-18 20:40:00,
2013-07-18 15:45:00,86.1,78.8,30.01,SSE,150,4.0,8.0,79,0.00,,,0.16,Wunderground v.1.15,2013-07-18 20:45:00,
2013-07-18 15:50:00,86.1,78.8,30.01,SSE,163,7.0,7.0,79,0.00,,,0.16,Wunderground v.1.15,2013-07-18 20:50:00,
2013-07-18 15:55:00,86.2,78.5,30.00,SE,139,2.0,8.0,78,0.00,,,0.16,Wunderground v.1.15,2013-07-18 20:55:00,
2013-07-18 16:00:00,86.2,78.5,30.00,South,169,7.0,7.0,78,0.00,,,0.16,Wunderground v.1.15,2013-07-18 21:00:00,
2013-07-18 16:05:00,86.1,78.4,30.00,SE,146,4.0,7.0,78,0.00,,,0.16,Wunderground v.1.15,2013-07-18 21:05:00,
2013-07-18 16:10:00,86.3,79.4,30.00,SE,128,5.0,5.0,80,0.00,,,0.16,Wunderground v.1.15,2013-07-18 21:10:00,
2013-07-18 16:15:00,86.6,79.3,30.00,SE,136,4.0,6.0,79,0.00,,,0.16,Wunderground v.1.15,2013-07-18 21:15:00,
2013-07-18 16:20:00,86.7,79.0,30.00,SE,131,4.0,7.0,78,0.00,,,0.16,Wunderground v.1.15,2013-07-18 21:20:00,
2013-07-18 16:25:00,86.3,79.0,30.00,SSE,162,5.0,9.0,79,0.00,,,0.16,Wunderground v.1.15,2013-07-18 21:25:00,
2013-07-18 16:30:00,86.5,79.2,30.00,SE,143,5.0,8.0,79,0.00,,,0.16,Wunderground v.1.15,2013-07-18 21:30:00,
2013-07-18 16:35:00,86.4,79.1,30.00,SE,141,3.0,8.0,79,0.00,,,0.16,Wunderground v.1.15,2013-07-18 21:35:00,
2013-07-18 16:40:00,86.3,78.6,30.00,ESE,122,6.0,6.0,78,0.00,,,0.16,Wunderground v.1.15,2013-07-18 21:40:00,
2013-07-18 16:45:00,86.5,78.8,30.00,SE,125,3.0,7.0,78,0.00,,,0.16,Wunderground v.1.15,2013-07-18 21:45:00,
2013-07-18 16:50:00,86.7,79.4,30.00,SSE,166,3.0,5.0,79,0.00,,,0.16,Wunderground v.1.15,2013-07-18 21:50:00,
2013-07-18 16:55:00,86.8,78.3,30.00,South,189,5.0,7.0,76,0.00,,,0.16,Wunderground v.1.15,2013-07-18 21:55:00,
2013-07-18 17:00:00,86.8,79.1,30.00,SSE,150,3.0,4.0,78,0.00,,,0.16,Wunderground v.1.15,2013-07-18 22:00:00,
2013-07-18 17:05:00,87.1,79.4,30.00,SE,141,5.0,7.0,78,0.00,,,0.16,Wunderground v.1.15,2013-07-18 22:05:00,
2013-07-18 17:10:00,86.8,79.1,30.00,SSE,160,3.0,4.0,78,0.00,,,0.16,Wunderground v.1.15,2013-07-18 22:10:00,
2013-07-18 17:15:00,87.0,78.5,30.00,South,172,2.0,6.0,76,0.00,,,0.16,Wunderground v.1.15,2013-07-18 22:15:00,
2013-07-18 17:20:00,87.0,79.3,30.00,SSE,160,3.0,4.0,78,0.00,,,0.16,Wunderground v.1.15,2013-07-18 22:20:00,
2013-07-18 17:25:00,86.6,79.3,30.00,ESE,122,2.0,9.0,79,0.00,,,0.16,Wunderground v.1.15,2013-07-18 22:25:00,
2013-07-18 17:30:00,86.5,80.0,29.99,South,190,2.0,4.0,81,0.00,,,0.16,Wunderground v.1.15,2013-07-18 22:30:00,
2013-07-18 17:35:00,85.7,78.8,29.99,SE,132,4.0,10.0,80,0.00,,,0.16,Wunderground v.1.15,2013-07-18 22:35:00,
2013-07-18 17:40:00,85.0,78.1,30.00,East,94,5.0,5.0,80,0.00,,,0.16,Wunderground v.1.15,2013-07-18 22:40:00,
2013-07-18 17:45:00,84.4,78.7,30.00,SE,134,2.0,5.0,83,0.00,,,0.16,Wunderground v.1.15,2013-07-18 22:45:00,
2013-07-18 17:50:00,84.0,78.3,30.01,SE,130,3.0,4.0,83,0.00,,,0.16,Wunderground v.1.15,2013-07-18 22:50:00,
2013-07-18 17:55:00,83.9,78.2,30.01,East,98,1.0,4.0,83,0.00,,,0.16,Wunderground v.1.15,2013-07-18 22:55:00,
2013-07-18 18:00:00,83.9,78.5,30.01,ESE,117,2.0,2.0,84,0.00,,,0.16,Wunderground v.1.15,2013-07-18 23:00:00,
2013-07-18 18:05:00,83.8,77.7,30.01,South,179,1.0,3.0,82,0.00,,,0.16,Wunderground v.1.15,2013-07-18 23:05:00,
2013-07-18 18:10:00,83.7,77.2,30.01,ESE,115,2.0,3.0,81,0.00,,,0.16,Wunderground v.1.15,2013-07-18 23:10:00,
2013-07-18 18:16:00,83.7,78.3,30.00,ESE,108,2.0,3.0,84,0.00,,,0.16,Wunderground v.1.15,2013-07-18 23:16:00,
2013-07-18 18:21:00,83.7,78.3,30.00,SE,132,2.0,3.0,84,0.00,,,0.16,Wunderground v.1.15,2013-07-18 23:21:00,
2013-07-18 18:26:00,83.6,78.2,30.00,SSE,155,1.0,4.0,84,0.00,,,0.16,Wunderground v.1.15,2013-07-18 23:26:00,
2013-07-18 18:31:00,83.7,78.3,29.99,SSW,194,3.0,4.0,84,0.00,,,0.16,Wunderground v.1.15,2013-07-18 23:31:00,
2013-07-18 18:36:00,83.7,78.0,29.99,South,174,1.0,4.0,83,0.00,,,0.16,Wunderground v.1.15,2013-07-18 23:36:00,
2013-07-18 18:41:00,83.5,77.8,29.99,ESE,112,1.0,2.0,83,0.00,,,0.16,Wunderground v.1.15,2013-07-18 23:41:00,
2013-07-18 18:46:00,83.4,78.1,30.00,East,96,1.0,3.0,84,0.00,,,0.16,Wunderground v.1.15,2013-07-18 23:46:00,
2013-07-18 18:51:00,83.2,77.9,30.00,East,85,1.0,2.0,84,0.00,,,0.16,Wunderground v.1.15,2013-07-18 23:51:00,
2013-07-18 18:56:00,83.1,77.8,30.00,East,79,0.0,2.0,84,0.00,,,0.16,Wunderground v.1.15,2013-07-18 23:56:00,
2013-07-18 19:01:00,82.2,74.3,30.01,NW,310,4.0,4.0,77,0.00,,,0.16,Wunderground v.1.15,2013-07-19 00:01:00,
2013-07-18 19:06:00,80.8,72.9,30.02,NW,325,2.0,7.0,77,0.00,,,0.16,Wunderground v.1.15,2013-07-19 00:06:00,
2013-07-18 19:11:00,80.1,72.6,30.02,NNW,343,2.0,3.0,78,0.00,,,0.16,Wunderground v.1.15,2013-07-19 00:11:00,
2013-07-18 19:16:00,79.6,72.1,30.02,NNW,342,2.0,4.0,78,0.00,,,0.16,Wunderground v.1.15,2013-07-19 00:16:00,
2013-07-18 19:21:00,79.3,72.2,30.02,NNW,332,1.0,2.0,79,0.00,,,0.16,Wunderground v.1.15,2013-07-19 00:21:00,
2013-07-18 19:26:00,79.0,72.3,30.02,NNW,348,1.0,2.0,80,0.00,,,0.16,Wunderground v.1.15,2013-07-19 00:26:00,
2013-07-18 19:31:00,78.8,72.1,30.02,North,349,0.0,1.0,80,0.00,,,0.16,Wunderground v.1.15,2013-07-19 00:31:00,
2013-07-18 19:36:00,78.6,72.6,30.02,NNW,342,0.0,2.0,82,0.00,,,0.16,Wunderground v.1.15,2013-07-19 00:36:00,
2013-07-18 19:41:00,78.3,72.3,30.02,NNW,342,0.0,1.0,82,0.00,,,0.16,Wunderground v.1.15,2013-07-19 00:41:00,
2013-07-18 19:46:00,78.1,72.5,30.02,NNW,342,1.0,1.0,83,0.00,,,0.16,Wunderground v.1.15,2013-07-19 00:46:00,
2013-07-18 19:51:00,77.9,72.3,30.02,NNW,343,0.0,0.0,83,0.00,,,0.16,Wunderground v.1.15,2013-07-19 00:51:00,
2013-07-18 19:56:00,77.7,72.1,30.02,ENE,58,0.0,1.0,83,0.00,,,0.16,Wunderground v.1.15,2013-07-19 00:56:00,
2013-07-18 20:01:00,77.6,72.0,30.02,NNE,21,0.0,1.0,83,0.00,,,0.16,Wunderground v.1.15,2013-07-19 01:01:00,
2013-07-18 20:06:00,77.5,71.9,30.02,NNE,23,1.0,2.0,83,0.00,,,0.16,Wunderground v.1.15,2013-07-19 01:06:00,
2013-07-18 20:11:00,77.3,72.1,30.03,NE,44,0.0,2.0,84,0.00,,,0.16,Wunderground v.1.15,2013-07-19 01:11:00,
2013-07-18 20:16:00,77.2,72.0,30.02,ENE,74,1.0,2.0,84,0.00,,,0.16,Wunderground v.1.15,2013-07-19 01:16:00,
2013-07-18 20:21:00,77.1,71.9,30.03,NE,37,1.0,1.0,84,0.00,,,0.16,Wunderground v.1.15,2013-07-19 01:21:00,
2013-07-18 20:26:00,77.0,72.1,30.02,ENE,68,1.0,2.0,85,0.00,,,0.16,Wunderground v.1.15,2013-07-19 01:26:00,
2013-07-18 20:31:00,77.0,72.1,30.03,ENE,66,0.0,1.0,85,0.00,,,0.16,Wunderground v.1.15,2013-07-19 01:31:00,
2013-07-18 20:36:00,77.0,72.1,30.03,ENE,65,1.0,1.0,85,0.00,,,0.16,Wunderground v.1.15,2013-07-19 01:36:00,
2013-07-18 20:41:00,76.9,72.0,30.03,NE,53,0.0,0.0,85,0.00,,,0.16,Wunderground v.1.15,2013-07-19 01:41:00,
2013-07-18 20:46:00,76.8,72.3,30.03,NE,43,0.0,1.0,86,0.00,,,0.16,Wunderground v.1.15,2013-07-19 01:46:00,
2013-07-18 20:51:00,76.6,72.1,30.04,North,352,1.0,1.0,86,0.00,,,0.16,Wunderground v.1.15,2013-07-19 01:51:00,
2013-07-18 20:56:00,76.5,72.0,30.04,North,352,0.0,1.0,86,0.00,,,0.16,Wunderground v.1.15,2013-07-19 01:56:00,
2013-07-18 21:01:00,76.4,71.9,30.04,North,352,0.0,1.0,86,0.00,,,0.16,Wunderground v.1.15,2013-07-19 02:01:00,
2013-07-18 21:06:00,76.4,72.2,30.04,North,352,0.0,1.0,87,0.00,,,0.16,Wunderground v.1.15,2013-07-19 02:06:00,
2013-07-18 21:11:00,76.4,72.6,30.04,North,352,0.0,1.0,88,0.00,,,0.16,Wunderground v.1.15,2013-07-19 02:11:00,
2013-07-18 21:16:00,76.2,72.4,30.04,North,356,0.0,1.0,88,0.00,,,0.16,Wunderground v.1.15,2013-07-19 02:16:00,
2013-07-18 21:21:00,76.0,72.5,30.04,NE,49,1.0,2.0,89,0.00,,,0.16,Wunderground v.1.15,2013-07-19 02:21:00,
2013-07-18 21:26:00,76.1,72.6,30.04,NE,49,0.0,2.0,89,0.00,,,0.16,Wunderground v.1.15,2013-07-19 02:26:00,
2013-07-18 21:31:00,76.1,72.6,30.05,NNE,29,0.0,2.0,89,0.00,,,0.16,Wunderground v.1.15,2013-07-19 02:31:00,
2013-07-18 21:36:00,75.9,72.8,30.05,NNE,29,0.0,2.0,90,0.00,,,0.16,Wunderground v.1.15,2013-07-19 02:36:00,
2013-07-18 21:41:00,75.7,72.6,30.04,NNE,29,0.0,1.0,90,0.00,,,0.16,Wunderground v.1.15,2013-07-19 02:41:00,
2013-07-18 21:46:00,75.7,72.6,30.05,NNE,29,0.0,1.0,90,0.00,,,0.16,Wunderground v.1.15,2013-07-19 02:46:00,
2013-07-18 21:51:00,75.9,72.8,30.05,NNE,29,0.0,0.0,90,0.00,,,0.16,Wunderground v.1.15,2013-07-19 02:51:00,
2013-07-18 21:56:00,76.2,73.1,30.05,ENE,58,1.0,1.0,90,0.00,,,0.16,Wunderground v.1.15,2013-07-19 02:56:00,
2013-07-18 22:01:00,76.7,73.5,30.05,ENE,58,0.0,0.0,90,0.00,,,0.16,Wunderground v.1.15,2013-07-19 03:01:00,
2013-07-18 22:02:00,76.7,73.5,30.05,ENE,58,0.0,0.0,90,0.00,,,0.16,Wunderground v.1.15,2013-07-19 03:02:00,
2013-07-18 22:07:00,76.8,73.6,30.05,ENE,58,0.0,1.0,90,0.00,,,0.16,Wunderground v.1.15,2013-07-19 03:07:00,
2013-07-18 22:12:00,76.7,73.5,30.05,ENE,58,0.0,1.0,90,0.00,,,0.16,Wunderground v.1.15,2013-07-19 03:12:00,
2013-07-18 22:17:00,77.0,74.2,30.05,ENE,58,0.0,1.0,91,0.00,,,0.16,Wunderground v.1.15,2013-07-19 03:17:00,
2013-07-18 22:22:00,77.3,74.5,30.05,ENE,58,0.0,1.0,91,0.00,,,0.16,Wunderground v.1.15,2013-07-19 03:22:00,
2013-07-18 22:27:00,77.4,74.6,30.05,ENE,58,0.0,1.0,91,0.00,,,0.16,Wunderground v.1.15,2013-07-19 03:27:00,
2013-07-18 22:32:00,77.6,74.4,30.05,ENE,58,0.0,0.0,90,0.00,,,0.16,Wunderground v.1.15,2013-07-19 03:32:00,
2013-07-18 22:37:00,77.4,74.2,30.05,NE,56,0.0,2.0,90,0.00,,,0.16,Wunderground v.1.15,2013-07-19 03:37:00,
2013-07-18 22:42:00,77.0,73.8,30.05,ENE,78,1.0,2.0,90,0.00,,,0.16,Wunderground v.1.15,2013-07-19 03:42:00,
2013-07-18 22:47:00,76.7,73.9,30.05,East,79,1.0,2.0,91,0.00,,,0.16,Wunderground v.1.15,2013-07-19 03:47:00,
2013-07-18 22:52:00,76.8,74.3,30.05,ENE,78,1.0,2.0,92,0.00,,,0.16,Wunderground v.1.15,2013-07-19 03:52:00,
2013-07-18 22:57:00,77.2,74.7,30.06,NNE,12,1.0,2.0,92,0.00,,,0.16,Wunderground v.1.15,2013-07-19 03:57:00,
2013-07-18 23:01:00,77.0,74.2,30.06,NNE,12,1.0,1.0,91,0.00,,,0.16,Wunderground v.1.15,2013-07-19 04:01:00,
2013-07-18 23:02:00,76.9,74.1,30.06,North,352,1.0,1.0,91,0.00,,,0.16,Wunderground v.1.15,2013-07-19 04:02:00,
2013-07-18 23:07:00,76.3,73.8,30.06,NNW,336,0.0,2.0,92,0.00,,,0.16,Wunderground v.1.15,2013-07-19 04:07:00,
2013-07-18 23:12:00,76.0,73.5,30.06,NNW,335,0.0,1.0,92,0.00,,,0.16,Wunderground v.1.15,2013-07-19 04:12:00,
2013-07-18 23:17:00,75.8,73.6,30.05,NNE,23,0.0,2.0,93,0.00,,,0.16,Wunderground v.1.15,2013-07-19 04:17:00,
2013-07-18 23:22:00,75.9,73.7,30.05,NNE,23,0.0,0.0,93,0.00,,,0.16,Wunderground v.1.15,2013-07-19 04:22:00,
2013-07-18 23:27:00,76.2,74.3,30.05,ENE,76,0.0,2.0,94,0.00,,,0.16,Wunderground v.1.15,2013-07-19 04:27:00,
2013-07-18 23:32:00,76.9,75.0,30.05,ESE,117,3.0,3.0,94,0.00,,,0.16,Wunderground v.1.15,2013-07-19 04:32:00,
2013-07-18 23:37:00,78.5,76.3,30.05,East,93,2.0,6.0,93,0.00,,,0.16,Wunderground v.1.15,2013-07-19 04:37:00,
2013-07-18 23:42:00,79.2,76.0,30.06,NW,316,2.0,2.0,90,0.00,,,0.16,Wunderground v.1.15,2013-07-19 04:42:00,
2013-07-18 23:47:00,78.5,75.3,30.06,NNW,347,2.0,2.0,90,0.00,,,0.16,Wunderground v.1.15,2013-07-19 04:47:00,
2013-07-18 23:52:00,77.4,73.9,30.05,NNW,347,0.0,2.0,89,0.00,,,0.16,Wunderground v.1.15,2013-07-19 04:52:00,
2013-07-18 23:57:00,76.6,73.8,30.06,NNW,347,0.0,2.0,91,0.00,,,0.00,Wunderground v.1.15,2013-07-19 04:57:00,